Wind Gap, PA (18091)

3:50 PM EDT on August 31, 2015 (GMT -0400)
Wind Gap Downtown | | Change Station
CLOSE
Current Station
Personal Weather Station
Location: Wind Gap, PA
Elevation: 751 ft
Nearby Weather Stations

Elev 751 ft 40.84 °N, 75.29 °W | Updated 14 seconds ago

Partly Cloudy
Partly Cloudy
86.9 °F
Feels Like 90 °F
N
1.3
Wind Variable Wind from SW
Gusts 2.5 mph

Today
High -- | Low -- °F
--% Chance of Precip.
Yesterday
High -- | Low -- °F
Precip. -- in
6:26 AM 7:35 PM
Waning Gibbous, 94% visible
Pressure 30.00 in
Visibility 10.0 miles
Clouds Clear
Heat Index 90 °F
Dew Point 68 °F
Humidity 53%
Rainfall in
Snow Depth Not available.
UV 3.0 out of 12
Pollen 9.80 out of 12
Air Quality Not available.
Flu Activity Not available.
METAR KABE 311851Z 25008KT 10SM CLR 31/18 A3001 RMK AO2 SLP157 T03110183
Pressure 30.00 in
Visibility 10.0 miles
Clouds Clear
Heat Index 90 °F
Dew Point 68 °F
Humidity 53%
Rainfall in
Snow Depth Not available.
UV 3.0 out of 12
Pollen 9.80 out of 12
Air Quality Not available.
Flu Activity Not available.
METAR KABE 311851Z 25008KT 10SM CLR 31/18 A3001 RMK AO2 SLP157 T03110183
Nowcast | as of 3:15 PM EDT on August 31, 2015

As we move closer to the evening, showers are becoming even more isolated and this trend is expected to continue. Any occurrence and duration will be briefer and lighter. The heaviest showers of the afternoon passed across northern Delaware and an automated site in Greenville received seventy hundredths of an inch.

×

10-Day Weather Forecast

×

Almanac

Astronomy

Aug. 31, 2015 Rise Set
Actual Time
Civil Twilight
Nautical Twilight
Astronomical Twilight
Moon
Length of Visible Light
Length of Day
Tomorrow will be .
, % of the Moon is Illuminated

Today's Extremes

State Highs State Lows

Community

WunderPhotos

Upload Photos

1,851,346 photos uploaded!

WunderBlogs® & News

Nearby

Air Quality

  Air Quality AQ Index Pollutant
Not available.

Snow Depth

Station Depth Elevation

Earthquake Activity

City Distance Mag. Time & Date
Minimum magnitude displayed is 2.5.

Coastal Water Temperatures

Place Temperature

Stations

Nearby Weather Stations

Station Location Temp. Windchill Dew Point Humidity Wind Precip. Elev Updated Type